createdAt,value
2018-05-06T00:00:46.657Z,6.03
2018-05-06T00:03:13.521Z,5.20
2018-05-06T00:05:40.511Z,6.03
2018-05-06T00:08:06.922Z,5.33
2018-05-06T00:10:34.090Z,5.80
2018-05-06T00:13:02.038Z,5.50
2018-05-06T00:15:28.755Z,5.60
2018-05-06T00:17:55.749Z,6.17
2018-05-06T00:20:22.417Z,6.73
2018-05-06T00:22:49.982Z,8.60
2018-05-06T00:25:17.747Z,6.80
2018-05-06T00:27:45.864Z,7.67
2018-05-06T00:30:12.106Z,7.33
2018-05-06T00:32:46.088Z,6.90
2018-05-06T00:35:12.279Z,6.47
2018-05-06T00:37:39.410Z,6.77
2018-05-06T00:40:06.159Z,6.20
2018-05-06T00:42:32.897Z,6.20
2018-05-06T00:44:59.393Z,5.57
2018-05-06T00:47:33.028Z,6.20
2018-05-06T00:49:59.827Z,6.07
2018-05-06T00:52:26.431Z,6.03
2018-05-06T00:54:53.872Z,5.30
2018-05-06T00:57:20.831Z,5.40
2018-05-06T00:59:49.018Z,5.70
2018-05-06T01:02:15.379Z,5.57
2018-05-06T01:04:42.441Z,5.30
2018-05-06T01:07:08.781Z,5.70
2018-05-06T01:09:34.992Z,5.37
2018-05-06T01:12:01.754Z,5.33
2018-05-06T01:14:29.296Z,4.93
2018-05-06T01:16:55.495Z,5.60
2018-05-06T01:19:22.237Z,5.07
2018-05-06T01:21:48.425Z,5.03
2018-05-06T01:24:15.385Z,4.90
2018-05-06T01:26:42.859Z,5.40
2018-05-06T01:29:09.627Z,5.60
2018-05-06T01:31:36.149Z,4.80
2018-05-06T01:34:02.896Z,5.10
2018-05-06T01:36:29.620Z,4.55
2018-05-06T01:38:56.448Z,5.70
2018-05-06T01:41:23.213Z,5.30
2018-05-06T01:43:49.496Z,5.28
2018-05-06T01:46:17.617Z,5.37
2018-05-06T01:48:44.111Z,5.57
2018-05-06T01:51:11.684Z,5.62
2018-05-06T01:53:38.450Z,4.50
2018-05-06T01:56:05.744Z,5.00
2018-05-06T01:58:32.725Z,4.70
2018-05-06T02:00:58.954Z,4.60
2018-05-06T02:03:25.823Z,4.62
2018-05-06T02:05:52.046Z,4.75
2018-05-06T02:08:18.879Z,5.30
2018-05-06T02:10:45.098Z,4.30
2018-05-06T02:13:11.863Z,4.82
2018-05-06T02:15:38.351Z,4.43
2018-05-06T02:18:05.624Z,4.95
2018-05-06T02:20:32.394Z,4.65
2018-05-06T02:22:59.156Z,4.35
2018-05-06T02:25:26.957Z,3.83
2018-05-06T02:27:53.186Z,4.05
2018-05-06T02:30:19.986Z,4.43
2018-05-06T02:32:46.516Z,5.43
2018-05-06T02:35:14.070Z,4.80
2018-05-06T02:37:40.273Z,5.18
2018-05-06T02:40:07.131Z,4.30
2018-05-06T02:42:33.326Z,4.50
2018-05-06T02:44:59.517Z,4.95
2018-05-06T02:47:26.503Z,4.50
2018-05-06T02:49:54.193Z,4.47
2018-05-06T02:52:20.381Z,5.45
2018-05-06T02:54:47.134Z,4.22
2018-05-06T02:57:13.460Z,4.45
2018-05-06T02:59:40.518Z,4.82
2018-05-06T03:02:07.400Z,4.55
2018-05-06T03:04:34.667Z,4.90
2018-05-06T03:07:00.896Z,5.20
2018-05-06T03:09:27.997Z,4.70
2018-05-06T03:11:55.733Z,5.43
2018-05-06T03:14:22.254Z,5.00
2018-05-06T03:16:49.503Z,4.47
2018-05-06T03:19:17.083Z,5.00
2018-05-06T03:21:43.462Z,4.65
2018-05-06T03:24:11.008Z,4.28
2018-05-06T03:26:38.615Z,4.55
2018-05-06T03:29:06.101Z,4.45
2018-05-06T03:31:32.518Z,5.22
2018-05-06T03:33:59.362Z,4.53
2018-05-06T03:36:26.327Z,4.05
2018-05-06T03:38:52.501Z,4.20
2018-05-06T03:41:19.179Z,4.40
2018-05-06T03:43:47.332Z,4.05
2018-05-06T03:46:14.570Z,3.70
2018-05-06T03:48:42.161Z,4.40
2018-05-06T03:51:08.371Z,3.70
2018-05-06T03:53:36.012Z,4.30
2018-05-06T03:59:27.572Z,3.97
2018-05-06T04:02:00.700Z,4.10
2018-05-06T04:04:26.916Z,4.57
2018-05-06T04:06:53.736Z,4.72
2018-05-06T04:09:22.060Z,3.95
2018-05-06T04:11:48.310Z,3.85
2018-05-06T04:14:14.480Z,4.12
2018-05-06T04:16:41.240Z,4.20
2018-05-06T04:19:08.105Z,3.97
2018-05-06T04:21:34.289Z,4.28
2018-05-06T04:24:00.512Z,4.80
2018-05-06T04:26:27.307Z,3.80
2018-05-06T04:28:54.228Z,5.07
2018-05-06T04:31:20.492Z,5.20
2018-05-06T04:33:46.842Z,4.55
2018-05-06T04:36:13.807Z,6.57
2018-05-06T04:38:40.035Z,4.80
2018-05-06T04:41:07.185Z,4.43
2018-05-06T04:43:33.836Z,4.70
2018-05-06T04:46:00.704Z,4.20
2018-05-06T04:48:27.037Z,4.90
2018-05-06T04:50:53.832Z,4.13
2018-05-06T04:53:20.055Z,4.30
2018-05-06T04:55:46.591Z,3.60
2018-05-06T04:58:14.885Z,4.00
2018-05-06T05:00:42.004Z,4.27
2018-05-06T05:03:09.251Z,3.90
2018-05-06T05:05:35.461Z,4.13
2018-05-06T05:08:01.670Z,3.63
2018-05-06T05:10:28.663Z,3.50
2018-05-06T05:12:55.696Z,3.37
2018-05-06T05:15:22.644Z,3.70
2018-05-06T05:17:49.943Z,3.87
2018-05-06T05:20:16.266Z,3.97
2018-05-06T05:22:42.482Z,3.90
2018-05-06T05:25:09.117Z,2.90
2018-05-06T05:27:36.128Z,3.03
2018-05-06T05:30:02.366Z,3.17
2018-05-06T05:32:30.162Z,3.57
2018-05-06T05:34:57.871Z,3.60
2018-05-06T05:37:24.057Z,3.30
2018-05-06T05:39:50.247Z,3.53
2018-05-06T05:42:17.230Z,3.50
2018-05-06T05:44:44.091Z,4.33
2018-05-06T05:47:10.328Z,3.50
2018-05-06T05:49:36.526Z,3.20
2018-05-06T05:52:02.863Z,4.00
2018-05-06T05:54:29.687Z,4.60
2018-05-06T05:56:55.925Z,4.70
2018-05-06T05:59:22.672Z,4.80
2018-05-06T06:01:48.887Z,5.00
2018-05-06T06:04:15.105Z,4.90
2018-05-06T06:06:41.440Z,5.00
2018-05-06T06:09:08.291Z,5.37
2018-05-06T06:11:35.012Z,5.63
2018-05-06T06:14:01.258Z,5.13
2018-05-06T06:16:28.943Z,4.50
2018-05-06T06:18:55.734Z,4.60
2018-05-06T06:21:22.849Z,4.87
2018-05-06T06:23:50.506Z,4.87
2018-05-06T06:26:17.221Z,5.00
2018-05-06T06:28:43.737Z,4.93
2018-05-06T06:31:10.112Z,4.60
2018-05-06T06:33:37.795Z,5.27
2018-05-06T06:36:04.221Z,4.50
2018-05-06T06:38:30.510Z,4.27
2018-05-06T06:40:56.769Z,4.57
2018-05-06T06:43:23.688Z,4.00
2018-05-06T06:45:49.882Z,4.87
2018-05-06T06:48:17.298Z,3.77
2018-05-06T06:50:44.317Z,4.33
2018-05-06T06:53:10.529Z,4.00
2018-05-06T06:55:36.773Z,3.63
2018-05-06T06:58:03.454Z,3.53
2018-05-06T07:00:31.637Z,4.23
2018-05-06T07:02:58.862Z,3.63
2018-05-06T07:05:25.070Z,3.50
2018-05-06T07:07:52.794Z,3.63
2018-05-06T07:10:19.759Z,3.50
2018-05-06T07:12:46.649Z,3.73
2018-05-06T07:15:13.109Z,3.73
2018-05-06T07:17:40.150Z,2.67
2018-05-06T07:20:07.098Z,3.47
2018-05-06T07:22:34.569Z,3.60
2018-05-06T07:25:01.392Z,2.33
2018-05-06T07:27:28.359Z,2.73
2018-05-06T07:29:55.229Z,2.27
2018-05-06T07:32:22.258Z,2.20
2018-05-06T07:34:49.034Z,2.10
2018-05-06T07:37:15.824Z,2.30
2018-05-06T07:39:42.436Z,2.00
2018-05-06T07:42:10.661Z,2.13
2018-05-06T07:44:36.869Z,2.53
2018-05-06T07:47:03.077Z,2.07
2018-05-06T07:49:37.490Z,2.60
2018-05-06T07:52:04.381Z,2.40
2018-05-06T07:54:30.554Z,2.47
2018-05-06T07:56:57.000Z,4.43
2018-05-06T07:59:24.487Z,2.40
2018-05-06T08:01:51.485Z,2.40
2018-05-06T08:04:18.183Z,2.17
2018-05-06T08:06:46.288Z,2.40
2018-05-06T08:09:12.979Z,1.90
2018-05-06T08:11:40.729Z,2.00
2018-05-06T08:14:07.664Z,2.40
2018-05-06T08:16:36.241Z,2.50
2018-05-06T08:19:02.420Z,2.20
2018-05-06T08:21:28.958Z,2.63
2018-05-06T08:23:55.693Z,2.50
2018-05-06T08:26:21.904Z,2.30
2018-05-06T08:28:48.180Z,2.27
2018-05-06T08:31:14.401Z,2.00
2018-05-06T08:33:40.613Z,2.17
2018-05-06T08:36:07.907Z,2.60
2018-05-06T08:38:34.913Z,2.30
2018-05-06T08:41:01.786Z,2.40
2018-05-06T08:43:43.292Z,2.03
2018-05-06T08:46:11.469Z,2.40
2018-05-06T08:48:38.906Z,2.43
2018-05-06T08:51:06.832Z,2.10
2018-05-06T08:53:34.049Z,2.23
2018-05-06T08:56:01.278Z,2.10
2018-05-06T08:58:27.889Z,2.20
2018-05-06T09:00:54.481Z,2.20
2018-05-06T09:03:22.142Z,2.23
2018-05-06T09:05:50.572Z,2.97
2018-05-06T09:08:18.258Z,1.83
2018-05-06T09:10:45.823Z,2.07
2018-05-06T09:13:13.173Z,2.23
2018-05-06T09:15:40.467Z,2.50
2018-05-06T09:18:07.815Z,2.07
2018-05-06T09:20:34.848Z,1.90
2018-05-06T09:23:01.313Z,2.20
2018-05-06T09:25:29.097Z,2.20
2018-05-06T09:27:56.009Z,1.93
2018-05-06T09:30:22.875Z,2.20
2018-05-06T09:32:50.020Z,2.60
2018-05-06T09:35:17.001Z,2.77
2018-05-06T09:37:44.573Z,2.17
2018-05-06T09:40:12.517Z,2.53
2018-05-06T09:42:39.328Z,2.40
2018-05-06T09:45:06.146Z,2.20
2018-05-06T09:47:32.362Z,2.80
2018-05-06T09:49:59.873Z,2.13
2018-05-06T09:52:26.876Z,2.43
2018-05-06T09:54:53.203Z,2.50
2018-05-06T09:57:20.740Z,2.70
2018-05-06T09:59:48.304Z,2.53
2018-05-06T10:02:16.020Z,2.10
2018-05-06T10:04:42.885Z,2.30
2018-05-06T10:07:09.147Z,2.50
2018-05-06T10:09:35.659Z,2.27
2018-05-06T10:12:02.626Z,2.43
2018-05-06T10:14:28.796Z,2.43
2018-05-06T10:16:55.700Z,3.20
2018-05-06T10:19:22.873Z,2.77
2018-05-06T10:21:49.494Z,2.33
2018-05-06T10:24:15.727Z,3.10
2018-05-06T10:26:42.168Z,2.70
2018-05-06T10:31:40.582Z,2.23
2018-05-06T10:34:06.789Z,4.00
2018-05-06T10:36:33.014Z,2.60
2018-05-06T10:38:59.812Z,2.50
2018-05-06T10:41:27.355Z,2.60
2018-05-06T10:43:54.046Z,2.80
2018-05-06T10:46:20.277Z,3.30
2018-05-06T10:48:46.503Z,2.37
2018-05-06T10:51:13.190Z,2.73
2018-05-06T10:53:40.720Z,2.70
2018-05-06T10:56:06.922Z,2.80
2018-05-06T10:58:33.782Z,1.97
2018-05-06T11:01:00.000Z,2.50
2018-05-06T11:03:26.591Z,2.40
2018-05-06T11:05:54.036Z,2.30
2018-05-06T11:08:21.554Z,2.30
2018-05-06T11:10:48.106Z,2.50
2018-05-06T11:13:16.396Z,2.43
2018-05-06T11:15:43.400Z,2.40
2018-05-06T11:18:09.623Z,2.63
2018-05-06T11:20:36.789Z,2.60
2018-05-06T11:23:03.620Z,2.77
2018-05-06T11:25:30.884Z,2.57
2018-05-06T11:27:57.620Z,2.30
2018-05-06T11:30:24.910Z,2.40
2018-05-06T11:32:51.652Z,2.50
2018-05-06T11:35:19.455Z,2.70
2018-05-06T11:37:46.219Z,3.07
2018-05-06T11:40:12.945Z,2.07
2018-05-06T11:42:39.870Z,2.30
2018-05-06T11:45:06.824Z,2.50
2018-05-06T11:47:34.818Z,2.43
2018-05-06T11:50:01.702Z,2.53
2018-05-06T11:52:28.228Z,2.73
2018-05-06T11:54:57.113Z,2.50
2018-05-06T11:57:24.581Z,2.40
2018-05-06T11:59:52.723Z,2.27
2018-05-06T12:02:19.541Z,2.73
2018-05-06T12:04:45.759Z,2.50
2018-05-06T12:07:12.716Z,2.33
2018-05-06T12:09:39.415Z,2.27
2018-05-06T12:12:11.756Z,2.70
2018-05-06T12:14:37.955Z,2.20
2018-05-06T12:17:04.153Z,2.43
2018-05-06T12:19:31.121Z,2.57
2018-05-06T12:21:57.912Z,2.40
2018-05-06T12:24:24.606Z,2.60
2018-05-06T12:26:50.838Z,2.70
2018-05-06T12:29:17.857Z,2.23
2018-05-06T12:31:44.684Z,2.90
2018-05-06T12:34:11.929Z,2.33
2018-05-06T12:36:40.015Z,2.60
2018-05-06T12:39:07.481Z,2.10
2018-05-06T12:41:34.973Z,2.23
2018-05-06T12:44:01.798Z,2.20
2018-05-06T12:46:28.851Z,2.60
2018-05-06T12:48:55.032Z,2.00
2018-05-06T12:51:21.895Z,4.27
2018-05-06T12:53:49.412Z,3.50
2018-05-06T12:56:16.156Z,2.40
2018-05-06T12:58:42.974Z,2.30
2018-05-06T13:01:09.962Z,2.30
2018-05-06T13:03:37.959Z,2.07
2018-05-06T13:06:05.451Z,2.10
2018-05-06T13:08:32.219Z,2.60
2018-05-06T13:10:58.413Z,2.30
2018-05-06T13:13:24.797Z,2.20
2018-05-06T13:15:52.247Z,3.17
2018-05-06T13:18:19.020Z,2.37
2018-05-06T13:20:45.833Z,2.13
2018-05-06T13:23:13.373Z,3.10
2018-05-06T13:25:39.593Z,2.40
2018-05-06T13:28:06.393Z,2.33
2018-05-06T13:30:32.966Z,2.83
2018-05-06T13:32:59.980Z,2.40
2018-05-06T13:35:26.205Z,2.60
2018-05-06T13:37:52.956Z,2.90
2018-05-06T13:40:19.190Z,2.47
2018-05-06T13:42:45.527Z,3.53
2018-05-06T13:45:11.747Z,2.10
2018-05-06T13:47:37.986Z,2.30
2018-05-06T13:50:04.283Z,2.80
2018-05-06T13:52:31.433Z,4.57
2018-05-06T13:54:58.258Z,3.73
2018-05-06T13:57:25.693Z,3.60
2018-05-06T13:59:52.645Z,2.30
2018-05-06T14:02:18.846Z,2.60
2018-05-06T14:04:45.701Z,2.60
2018-05-06T14:07:11.912Z,2.50
2018-05-06T14:09:40.588Z,2.77
2018-05-06T14:12:07.409Z,2.20
2018-05-06T14:14:33.643Z,2.20
2018-05-06T14:16:59.876Z,2.50
2018-05-06T14:19:26.109Z,2.83
2018-05-06T14:21:52.293Z,2.50
2018-05-06T14:24:19.586Z,2.43
2018-05-06T14:26:47.607Z,2.57
2018-05-06T14:29:14.982Z,2.50
2018-05-06T14:31:42.454Z,2.37
2018-05-06T14:34:08.649Z,2.00
2018-05-06T14:36:36.559Z,2.30
2018-05-06T14:39:03.620Z,2.27
2018-05-06T14:41:31.240Z,2.20
2018-05-06T14:43:58.953Z,2.33
2018-05-06T14:46:37.404Z,2.37
2018-05-06T14:49:04.406Z,2.00
2018-05-06T14:51:30.634Z,2.20
2018-05-06T14:53:56.888Z,2.13
2018-05-06T14:56:23.472Z,2.10
2018-05-06T14:58:50.661Z,2.27
2018-05-06T15:01:17.440Z,2.40
2018-05-06T15:03:44.440Z,1.77
2018-05-06T15:06:11.106Z,1.90
2018-05-06T15:08:37.694Z,1.83
2018-05-06T15:11:04.654Z,2.10
2018-05-06T15:13:31.023Z,2.00
2018-05-06T15:15:58.480Z,2.10
2018-05-06T15:18:26.822Z,2.20
2018-05-06T15:20:53.060Z,2.30
2018-05-06T15:23:19.447Z,2.13
2018-05-06T15:25:45.690Z,2.47
2018-05-06T15:28:12.076Z,2.50
2018-05-06T15:30:39.200Z,2.90
2018-05-06T15:33:06.236Z,2.00
2018-05-06T15:35:32.518Z,2.03
2018-05-06T15:37:58.716Z,2.13
2018-05-06T15:40:25.598Z,2.03
2018-05-06T15:42:52.318Z,2.10
2018-05-06T15:45:19.900Z,1.93
2018-05-06T15:47:46.795Z,2.33
2018-05-06T15:50:14.011Z,1.73
2018-05-06T15:52:40.273Z,2.17
2018-05-06T15:55:06.496Z,1.97
2018-05-06T15:57:33.153Z,1.80
2018-05-06T16:00:00.508Z,1.60
2018-05-06T16:05:36.719Z,2.00
2018-05-06T16:08:04.471Z,2.40
2018-05-06T16:10:32.063Z,2.20
2018-05-06T16:12:58.292Z,2.23
2018-05-06T16:15:25.120Z,1.77
2018-05-06T16:17:51.352Z,2.13
2018-05-06T16:20:17.854Z,1.87
2018-05-06T16:22:44.798Z,2.30
2018-05-06T16:25:11.097Z,2.37
2018-05-06T16:27:37.970Z,2.33
2018-05-06T16:30:04.902Z,2.17
2018-05-06T16:32:31.356Z,2.33
2018-05-06T16:34:57.703Z,2.80
2018-05-06T16:37:24.625Z,2.40
2018-05-06T16:39:51.859Z,2.50
2018-05-06T16:42:19.351Z,2.17
2018-05-06T16:44:46.831Z,2.43
2018-05-06T16:47:14.073Z,2.20
2018-05-06T16:49:40.835Z,2.50
2018-05-06T16:52:07.064Z,2.30
2018-05-06T16:54:33.673Z,2.60
2018-05-06T16:57:00.295Z,2.50
2018-05-06T16:59:27.374Z,2.30
2018-05-06T17:01:53.712Z,2.20
2018-05-06T17:04:20.793Z,2.30
2018-05-06T17:06:47.069Z,2.43
2018-05-06T17:09:15.376Z,2.27
2018-05-06T17:11:41.645Z,2.23
2018-05-06T17:14:08.672Z,2.70
2018-05-06T17:16:35.529Z,2.50
2018-05-06T17:19:02.744Z,2.40
2018-05-06T17:21:30.866Z,2.43
2018-05-06T17:23:57.857Z,2.97
2018-05-06T17:26:24.652Z,2.53
2018-05-06T17:28:52.843Z,2.60
2018-05-06T17:31:19.765Z,2.60
2018-05-06T17:33:46.882Z,2.70
2018-05-06T17:36:14.137Z,2.30
2018-05-06T17:38:41.064Z,2.60
2018-05-06T17:41:08.266Z,2.17
2018-05-06T17:43:35.747Z,2.53
2018-05-06T17:46:02.794Z,2.50
2018-05-06T17:48:29.899Z,2.47
2018-05-06T17:50:57.526Z,2.47
2018-05-06T17:53:24.322Z,2.80
2018-05-06T17:55:51.388Z,2.53
2018-05-06T17:58:17.590Z,2.70
2018-05-06T18:00:44.572Z,2.23
2018-05-06T18:03:10.805Z,2.10
2018-05-06T18:05:37.058Z,2.80
2018-05-06T18:08:03.926Z,2.00
2018-05-06T18:10:30.155Z,2.20
2018-05-06T18:12:56.539Z,2.30
2018-05-06T18:15:24.177Z,2.53
2018-05-06T18:17:50.447Z,2.17
2018-05-06T18:20:24.093Z,3.10
2018-05-06T18:22:58.101Z,2.80
2018-05-06T18:25:24.897Z,3.20
2018-05-06T18:27:51.639Z,2.37
2018-05-06T18:30:17.884Z,2.07
2018-05-06T18:32:44.603Z,2.20
2018-05-06T18:35:12.293Z,2.40
2018-05-06T18:37:38.877Z,2.17
2018-05-06T18:40:05.957Z,2.77
2018-05-06T18:42:32.345Z,3.30
2018-05-06T18:44:59.729Z,3.10
2018-05-06T18:47:27.002Z,2.93
2018-05-06T18:49:54.880Z,2.13
2018-05-06T18:52:21.322Z,2.50
2018-05-06T18:54:48.344Z,3.30
2018-05-06T18:57:14.715Z,3.10
2018-05-06T18:59:40.936Z,3.07
2018-05-06T19:02:07.982Z,2.70
2018-05-06T19:04:35.984Z,3.93
2018-05-06T19:07:03.080Z,3.60
2018-05-06T19:09:29.496Z,3.60
2018-05-06T19:11:55.826Z,2.70
2018-05-06T19:14:22.666Z,3.00
2018-05-06T19:16:50.483Z,2.87
2018-05-06T19:19:17.518Z,2.57
2018-05-06T19:21:44.708Z,2.90
2018-05-06T19:24:11.053Z,2.87
2018-05-06T19:26:39.013Z,3.20
2018-05-06T19:29:06.859Z,2.80
2018-05-06T19:31:33.301Z,2.97
2018-05-06T19:34:00.299Z,2.80
2018-05-06T19:36:27.534Z,2.57
2018-05-06T19:38:53.942Z,2.40
2018-05-06T19:41:20.443Z,2.87
2018-05-06T19:43:47.378Z,2.50
2018-05-06T19:46:14.000Z,3.53
2018-05-06T19:48:41.757Z,2.50
2018-05-06T19:51:08.366Z,2.50
2018-05-06T19:53:36.210Z,1.70
2018-05-06T19:56:03.688Z,2.00
2018-05-06T19:58:30.804Z,2.23
2018-05-06T20:00:57.621Z,2.20
2018-05-06T20:03:24.802Z,1.90
2018-05-06T20:05:51.312Z,2.17
2018-05-06T20:08:18.579Z,1.80
2018-05-06T20:10:45.065Z,2.10
2018-05-06T20:13:13.167Z,2.63
2018-05-06T20:15:40.033Z,1.77
2018-05-06T20:18:06.887Z,1.90
2018-05-06T20:20:34.762Z,1.80
2018-05-06T20:23:01.533Z,1.93
2018-05-06T20:25:29.159Z,2.00
2018-05-06T20:27:55.502Z,1.83
2018-05-06T20:30:21.820Z,1.80
2018-05-06T20:32:48.866Z,1.80
2018-05-06T20:35:15.205Z,1.90
2018-05-06T20:37:41.531Z,2.10
2018-05-06T20:40:07.780Z,2.00
2018-05-06T20:42:34.581Z,1.73
2018-05-06T20:45:00.823Z,1.80
2018-05-06T20:47:27.289Z,2.10
2018-05-06T20:49:54.755Z,1.93
2018-05-06T20:52:21.507Z,2.07
2018-05-06T20:54:49.069Z,2.03
2018-05-06T20:57:17.059Z,2.07
2018-05-06T20:59:44.053Z,2.00
2018-05-06T21:02:11.188Z,2.10
2018-05-06T21:04:38.285Z,1.83
2018-05-06T21:07:05.292Z,2.17
2018-05-06T21:09:32.319Z,2.13
2018-05-06T21:11:59.588Z,2.63
2018-05-06T21:14:26.031Z,2.03
2018-05-06T21:16:53.702Z,2.00
2018-05-06T21:19:21.744Z,2.10
2018-05-06T21:21:48.307Z,2.30
2018-05-06T21:24:15.710Z,2.13
2018-05-06T21:26:42.972Z,2.40
2018-05-06T21:29:10.290Z,2.27
2018-05-06T21:31:37.240Z,2.13
2018-05-06T21:34:04.652Z,1.93
2018-05-06T21:36:33.139Z,2.10
2018-05-06T21:39:00.189Z,2.30
2018-05-06T21:41:26.726Z,2.60
2018-05-06T21:43:53.252Z,2.30
2018-05-06T21:46:20.229Z,2.93
2018-05-06T21:48:47.308Z,2.30
2018-05-06T21:51:14.148Z,2.70
2018-05-06T21:53:40.937Z,2.63
2018-05-06T21:56:07.182Z,2.70
2018-05-06T21:58:34.170Z,3.03
2018-05-06T22:01:00.874Z,3.30
2018-05-06T22:03:28.393Z,2.60
2018-05-06T22:05:55.417Z,2.83
2018-05-06T22:08:22.624Z,2.40
2018-05-06T22:10:49.387Z,3.00
2018-05-06T22:13:16.950Z,3.00
2018-05-06T22:15:43.227Z,3.30
2018-05-06T22:18:10.333Z,3.00
2018-05-06T22:20:36.670Z,2.90
2018-05-06T22:23:03.935Z,3.13
2018-05-06T22:25:30.788Z,2.90
2018-05-06T22:27:58.059Z,3.30
2018-05-06T22:30:24.990Z,3.10
2018-05-06T22:32:51.210Z,2.60
2018-05-06T22:35:18.984Z,2.73
2018-05-06T22:37:45.801Z,2.80
2018-05-06T22:40:12.013Z,3.17
2018-05-06T22:42:39.535Z,3.13
2018-05-06T22:45:06.230Z,3.70
2018-05-06T22:47:33.253Z,3.03
2018-05-06T22:50:00.840Z,3.37
2018-05-06T22:52:27.124Z,3.40
2018-05-06T22:54:54.673Z,3.80
2018-05-06T22:57:21.066Z,3.60
2018-05-06T22:59:48.082Z,3.30
2018-05-06T23:02:14.399Z,3.40
2018-05-06T23:04:42.523Z,3.20
2018-05-06T23:07:08.737Z,3.00
2018-05-06T23:09:34.912Z,3.50
2018-05-06T23:12:01.148Z,3.63
2018-05-06T23:14:28.060Z,3.23
2018-05-06T23:16:54.387Z,3.87
2018-05-06T23:19:21.121Z,3.80
2018-05-06T23:21:47.796Z,3.03
2018-05-06T23:24:15.681Z,3.10
2018-05-06T23:26:42.456Z,3.40
2018-05-06T23:29:09.217Z,3.23
2018-05-06T23:31:35.453Z,3.47
2018-05-06T23:34:01.717Z,3.03
2018-05-06T23:36:28.468Z,3.10
2018-05-06T23:38:54.688Z,2.83
2018-05-06T23:41:20.915Z,3.10
2018-05-06T23:43:47.164Z,3.70
2018-05-06T23:46:14.087Z,2.93
2018-05-06T23:48:41.306Z,3.13
2018-05-06T23:51:07.692Z,3.20
2018-05-06T23:53:34.730Z,3.40
2018-05-06T23:56:00.969Z,3.60
2018-05-06T23:58:27.857Z,3.00
